Playa De Oro International Airport
MMZO : now visible

Airfield :











YOU CAN JOIN US ON...

 
LOGIN :

Register | Disclaimer

   EN    FR    IT 

 









Legend :    VFR   Marginal VFR   IFR   Intensive IFR   Very Intensive IFR
Visi :
Ceiling :
>= 8 km
>= 3000ft
5 to 8 km
1000 to 3000 ft
1500m to 5 km
500 to 1000 ft
800 to 1500m
200 to 500 ft
< 800m
< 200 ft
Symbols :   Thunderstorms  Fog  Heavy snow  Heavy precipitations  Wind > 20 kt






- Airport Elevation : 30 ft
- IATA code : ZLO


MMZO - Playa De Oro International

CURRENT METAR :
  • 061640Z 26010KT 8SM FEW020 BKN210 28/23 A2984 RMK 8/104 HZ

EXPIRED METARs :
  • 061543Z 26010KT 6SM SCT020 BKN210 28/23 A2985 RMK 8/104 HZ
  • 061444Z 26005KT 4SM BKN020 BKN210 26/23 A2985 RMK 8/104 HZ

TAF TAF MMZO
Valid from the 06 at 18:00 until the 07 at 18:00 UTC


061653Z 0618/0718 26010KT 6SM HZ SCT020 BKN210
BECMG 0620/0621 24015KT
FM070200 00000KT P6SM SCT020 SCT210
FM071000 00000KT 5SM HZ OVC020
TEMPO 0711/0715 3SM BR OVC010
FM071600 00000KT 6SM HZ BKN020
MMFR FIR / North America



MET'MAP, your aeronautical weather chart ! - Copyright ORBIFLY December 2007 - Disclaimer

ORBIFLY MET'MAP TEAM :

Programming & Development : Alexandra Zaïnal
Concept & original design : Baudouin d'Aumeries
Assistance for programming : Marc-Olivier Méhu
Technical & hardware support : Manuel Goepfert

Contact : metmap@orbifly.com




SOURCES & CREDITS :

   NOAA       Earth
Advisory